createdAt,value
2022-07-29T00:01:00.593Z,21.55
2022-07-29T00:02:33.417Z,21.54
2022-07-29T00:04:05.391Z,21.54
2022-07-29T00:05:37.381Z,21.53
2022-07-29T00:07:09.438Z,21.51
2022-07-29T00:08:42.523Z,21.50
2022-07-29T00:10:14.479Z,21.50
2022-07-29T00:11:46.377Z,21.50
2022-07-29T00:13:18.265Z,21.49
2022-07-29T00:15:04.145Z,21.48
2022-07-29T00:16:36.196Z,21.49
2022-07-29T00:18:11.209Z,21.48
2022-07-29T00:19:45.601Z,21.46
2022-07-29T00:21:17.664Z,21.45
2022-07-29T00:22:49.484Z,21.44
2022-07-29T00:24:21.365Z,21.42
2022-07-29T00:25:55.173Z,21.40
2022-07-29T00:27:27.024Z,21.45
2022-07-29T00:29:31.200Z,21.44
2022-07-29T00:30:52.231Z,21.46
2022-07-29T00:32:24.096Z,21.42
2022-07-29T00:33:56.351Z,21.38
2022-07-29T00:35:46.384Z,21.36
2022-07-29T00:37:18.264Z,21.31
2022-07-29T00:38:51.326Z,21.28
2022-07-29T00:40:25.250Z,21.28
2022-07-29T00:41:57.243Z,21.28
2022-07-29T00:43:29.108Z,21.28
2022-07-29T00:45:00.964Z,21.28
2022-07-29T00:46:32.817Z,21.28
2022-07-29T00:48:05.974Z,21.28
2022-07-29T00:49:43.032Z,21.28
2022-07-29T00:51:15.283Z,21.28
2022-07-29T00:52:47.471Z,21.29
2022-07-29T00:54:19.611Z,21.28
2022-07-29T00:55:52.388Z,21.28
2022-07-29T00:57:24.267Z,21.30
2022-07-29T00:58:57.911Z,21.25
2022-07-29T01:00:30.415Z,21.25
2022-07-29T01:02:04.358Z,21.23
2022-07-29T01:03:36.363Z,21.21
2022-07-29T01:05:08.655Z,21.21
2022-07-29T01:06:40.662Z,21.20
2022-07-29T01:08:16.578Z,21.19
2022-07-29T01:09:48.700Z,21.16
2022-07-29T01:11:20.819Z,21.16
2022-07-29T01:12:54.136Z,21.17
2022-07-29T01:14:26.536Z,21.16
2022-07-29T01:16:01.788Z,21.16
2022-07-29T01:17:36.051Z,21.14
2022-07-29T01:19:31.542Z,21.14
2022-07-29T01:21:12.107Z,21.08
2022-07-29T01:23:10.053Z,20.99
2022-07-29T01:25:29.701Z,20.83
2022-07-29T01:27:27.311Z,20.68
2022-07-29T01:29:20.088Z,20.53
2022-07-29T01:30:55.173Z,20.48
2022-07-29T01:32:31.048Z,20.48
2022-07-29T01:34:07.150Z,20.47
2022-07-29T01:35:42.366Z,20.43
2022-07-29T01:37:19.683Z,20.41
2022-07-29T01:39:00.846Z,20.41
2022-07-29T01:41:13.412Z,20.40
2022-07-29T01:42:51.639Z,20.40
2022-07-29T01:44:48.260Z,20.40
2022-07-29T01:46:31.203Z,20.38
2022-07-29T01:48:24.851Z,20.31
2022-07-29T01:49:58.125Z,20.25
2022-07-29T01:51:57.359Z,20.14
2022-07-29T01:53:39.706Z,20.13
2022-07-29T01:55:15.295Z,20.11
2022-07-29T01:56:50.237Z,20.12
2022-07-29T01:58:22.930Z,20.13
2022-07-29T01:59:57.651Z,20.15
2022-07-29T02:01:31.172Z,20.14
2022-07-29T02:03:07.022Z,20.10
2022-07-29T02:04:40.503Z,20.01
2022-07-29T02:06:13.132Z,19.94
2022-07-29T02:07:46.013Z,19.89
2022-07-29T02:09:19.067Z,19.77
2022-07-29T02:10:51.688Z,19.69
2022-07-29T02:12:25.430Z,19.59
2022-07-29T02:13:57.906Z,19.45
2022-07-29T02:15:33.969Z,19.40
2022-07-29T02:17:05.949Z,19.35
2022-07-29T02:18:38.867Z,19.28
2022-07-29T02:20:11.260Z,19.26
2022-07-29T02:21:44.280Z,19.26
2022-07-29T02:23:20.880Z,19.26
2022-07-29T02:24:53.077Z,19.23
2022-07-29T02:26:27.205Z,19.22
2022-07-29T02:28:00.301Z,19.21
2022-07-29T02:29:32.556Z,19.19
2022-07-29T02:31:04.851Z,19.17
2022-07-29T02:32:37.907Z,19.09
2022-07-29T02:34:13.324Z,19.08
2022-07-29T02:35:47.126Z,19.06
2022-07-29T02:37:20.075Z,19.09
2022-07-29T02:38:52.805Z,19.12
2022-07-29T02:40:26.765Z,19.16
2022-07-29T02:42:07.207Z,19.16
2022-07-29T02:43:40.523Z,19.13
2022-07-29T02:45:12.466Z,19.13
2022-07-29T02:46:52.179Z,19.17
2022-07-29T02:48:29.281Z,19.20
2022-07-29T02:50:09.512Z,19.17
2022-07-29T02:51:52.447Z,19.16
2022-07-29T02:53:26.465Z,19.15
2022-07-29T02:55:01.807Z,19.16
2022-07-29T02:56:36.103Z,19.14
2022-07-29T02:58:15.752Z,19.16
2022-07-29T02:59:49.397Z,19.19
2022-07-29T03:01:24.065Z,19.19
2022-07-29T03:02:58.113Z,19.16
2022-07-29T03:04:32.285Z,19.17
2022-07-29T03:06:05.575Z,19.18
2022-07-29T03:07:38.222Z,19.17
2022-07-29T03:09:13.301Z,19.21
2022-07-29T03:10:46.948Z,19.18
2022-07-29T03:12:19.268Z,19.20
2022-07-29T03:13:51.569Z,19.21
2022-07-29T03:15:24.115Z,19.19
2022-07-29T03:16:56.806Z,19.10
2022-07-29T03:18:28.841Z,18.91
2022-07-29T03:20:01.022Z,18.78
2022-07-29T03:21:33.070Z,18.71
2022-07-29T03:23:05.532Z,18.76
2022-07-29T03:24:37.971Z,18.78
2022-07-29T03:26:09.873Z,18.80
2022-07-29T03:27:42.100Z,18.83
2022-07-29T03:29:13.970Z,18.89
2022-07-29T03:30:45.892Z,18.91
2022-07-29T03:32:23.833Z,18.90
2022-07-29T03:33:57.029Z,18.87
2022-07-29T03:35:29.368Z,18.87
2022-07-29T03:37:01.246Z,18.87
2022-07-29T03:38:35.263Z,18.87
2022-07-29T03:40:09.764Z,18.87
2022-07-29T03:41:42.851Z,18.78
2022-07-29T03:43:16.973Z,18.66
2022-07-29T03:44:49.728Z,18.47
2022-07-29T03:46:22.153Z,18.37
2022-07-29T03:48:01.266Z,18.23
2022-07-29T03:49:33.964Z,18.14
2022-07-29T03:51:05.894Z,18.09
2022-07-29T03:52:39.247Z,18.03
2022-07-29T03:54:11.469Z,17.99
2022-07-29T03:55:46.601Z,18.00
2022-07-29T03:57:22.901Z,18.00
2022-07-29T03:58:55.839Z,18.00
2022-07-29T04:00:28.652Z,18.06
2022-07-29T04:02:01.362Z,18.11
2022-07-29T04:03:33.475Z,18.08
2022-07-29T04:05:05.661Z,18.06
2022-07-29T04:06:46.385Z,18.07
2022-07-29T04:08:20.587Z,18.07
2022-07-29T04:09:52.467Z,18.09
2022-07-29T04:11:27.156Z,18.11
2022-07-29T04:13:00.341Z,18.10
2022-07-29T04:14:36.538Z,18.11
2022-07-29T04:16:08.455Z,18.12
2022-07-29T04:17:40.337Z,18.16
2022-07-29T04:19:12.220Z,18.19
2022-07-29T04:20:44.171Z,18.18
2022-07-29T04:22:16.014Z,18.22
2022-07-29T04:23:53.147Z,18.22
2022-07-29T04:25:25.977Z,18.25
2022-07-29T04:26:57.833Z,18.26
2022-07-29T04:28:29.668Z,18.26
2022-07-29T04:30:01.529Z,18.31
2022-07-29T04:31:33.570Z,18.29
2022-07-29T04:33:06.908Z,18.32
2022-07-29T04:34:39.727Z,18.33
2022-07-29T04:36:28.570Z,18.35
2022-07-29T04:38:01.801Z,18.29
2022-07-29T04:39:33.749Z,18.28
2022-07-29T04:41:07.779Z,18.32
2022-07-29T04:42:45.046Z,18.34
2022-07-29T04:44:19.410Z,18.39
2022-07-29T04:45:51.507Z,18.43
2022-07-29T04:47:25.366Z,18.44
2022-07-29T04:48:57.260Z,18.44
2022-07-29T04:50:29.321Z,18.41
2022-07-29T04:52:01.329Z,18.38
2022-07-29T04:53:33.177Z,18.40
2022-07-29T04:55:06.141Z,18.37
2022-07-29T04:56:38.024Z,18.35
2022-07-29T04:58:09.980Z,18.35
2022-07-29T04:59:41.797Z,18.35
2022-07-29T05:01:13.745Z,18.40
2022-07-29T05:02:45.831Z,18.41
2022-07-29T05:04:18.280Z,18.41
2022-07-29T05:05:50.331Z,18.41
2022-07-29T05:07:22.265Z,18.39
2022-07-29T05:08:54.122Z,18.40
2022-07-29T05:10:26.496Z,18.39
2022-07-29T05:11:58.431Z,18.40
2022-07-29T05:13:30.594Z,18.36
2022-07-29T05:15:18.792Z,18.35
2022-07-29T05:16:52.234Z,18.35
2022-07-29T05:18:25.999Z,18.33
2022-07-29T05:19:58.216Z,18.36
2022-07-29T05:21:30.074Z,18.36
2022-07-29T05:23:02.796Z,18.36
2022-07-29T05:24:34.539Z,18.37
2022-07-29T05:26:06.447Z,18.28
2022-07-29T05:27:38.450Z,18.27
2022-07-29T05:29:42.726Z,18.28
2022-07-29T05:31:02.970Z,18.28
2022-07-29T05:32:35.043Z,18.27
2022-07-29T05:34:06.906Z,18.31
2022-07-29T05:35:38.751Z,18.35
2022-07-29T05:37:10.707Z,18.34
2022-07-29T05:38:42.606Z,18.32
2022-07-29T05:40:14.497Z,18.33
2022-07-29T05:41:51.533Z,18.33
2022-07-29T05:43:24.167Z,18.32
2022-07-29T05:44:56.342Z,18.32
2022-07-29T05:46:28.291Z,18.31
2022-07-29T05:48:00.157Z,18.38
2022-07-29T05:49:32.292Z,18.35
2022-07-29T05:51:04.358Z,18.34
2022-07-29T05:52:36.226Z,18.36
2022-07-29T05:54:08.117Z,18.35
2022-07-29T05:55:39.976Z,18.37
2022-07-29T05:57:19.116Z,18.41
2022-07-29T05:58:51.012Z,18.40
2022-07-29T06:00:25.252Z,18.39
2022-07-29T06:01:58.289Z,18.39
2022-07-29T06:03:31.372Z,18.39
2022-07-29T06:05:03.656Z,18.38
2022-07-29T06:06:35.844Z,18.38
2022-07-29T06:08:08.404Z,18.38
2022-07-29T06:09:40.533Z,18.36
2022-07-29T06:11:12.520Z,18.38
2022-07-29T06:12:44.405Z,18.37
2022-07-29T06:14:16.635Z,18.40
2022-07-29T06:15:48.861Z,18.38
2022-07-29T06:17:20.801Z,18.39
2022-07-29T06:18:55.862Z,18.37
2022-07-29T06:20:30.918Z,18.36
2022-07-29T06:22:03.209Z,18.35
2022-07-29T06:23:35.079Z,18.32
2022-07-29T06:25:07.393Z,18.33
2022-07-29T06:26:42.024Z,18.31
2022-07-29T06:28:13.954Z,18.29
2022-07-29T06:29:45.844Z,18.27
2022-07-29T06:31:18.569Z,18.26
2022-07-29T06:32:50.571Z,18.22
2022-07-29T06:34:22.471Z,18.21
2022-07-29T06:35:57.886Z,18.18
2022-07-29T06:37:29.879Z,18.12
2022-07-29T06:39:13.219Z,18.00
2022-07-29T06:41:01.266Z,17.88
2022-07-29T06:42:33.309Z,17.80
2022-07-29T06:44:05.776Z,17.69
2022-07-29T06:45:37.822Z,17.60
2022-07-29T06:47:09.669Z,17.53
2022-07-29T06:48:43.480Z,17.57
2022-07-29T06:50:15.487Z,17.61
2022-07-29T06:51:47.690Z,17.61
2022-07-29T06:53:19.517Z,17.61
2022-07-29T06:56:28.754Z,17.58
2022-07-29T06:58:00.615Z,17.57
2022-07-29T06:59:35.808Z,17.56
2022-07-29T07:01:08.024Z,17.63
2022-07-29T07:02:39.951Z,17.69
2022-07-29T07:04:12.549Z,17.76
2022-07-29T07:05:45.353Z,17.87
2022-07-29T07:07:17.076Z,17.94
2022-07-29T07:08:49.868Z,18.04
2022-07-29T07:10:21.754Z,18.13
2022-07-29T07:11:55.974Z,18.08
2022-07-29T07:13:29.237Z,18.06
2022-07-29T07:15:01.091Z,18.06
2022-07-29T07:16:33.309Z,18.07
2022-07-29T07:18:09.471Z,18.09
2022-07-29T07:19:41.335Z,18.06
2022-07-29T07:21:19.123Z,18.00
2022-07-29T07:22:51.375Z,17.95
2022-07-29T07:24:25.258Z,17.93
2022-07-29T07:25:57.107Z,17.95
2022-07-29T07:27:29.411Z,17.98
2022-07-29T07:29:01.552Z,18.04
2022-07-29T07:30:33.761Z,18.10
2022-07-29T07:32:06.042Z,18.16
2022-07-29T07:33:38.063Z,18.19
2022-07-29T07:35:10.868Z,18.26
2022-07-29T07:36:42.603Z,18.27
2022-07-29T07:38:14.500Z,18.24
2022-07-29T07:39:46.439Z,18.18
2022-07-29T07:41:18.349Z,18.20
2022-07-29T07:42:50.241Z,18.22
2022-07-29T07:44:22.970Z,18.24
2022-07-29T07:45:55.178Z,18.28
2022-07-29T07:47:27.920Z,18.36
2022-07-29T07:48:59.948Z,18.42
2022-07-29T07:50:32.016Z,18.47
2022-07-29T07:52:04.293Z,18.49
2022-07-29T07:53:36.302Z,18.49
2022-07-29T07:55:08.580Z,18.55
2022-07-29T07:56:40.436Z,18.57
2022-07-29T07:58:12.890Z,18.66
2022-07-29T07:59:44.776Z,18.67
2022-07-29T08:01:20.166Z,18.69
2022-07-29T08:02:52.179Z,18.70
2022-07-29T08:04:28.541Z,18.67
2022-07-29T08:06:00.813Z,18.65
2022-07-29T08:07:32.703Z,18.67
2022-07-29T08:09:27.658Z,18.69
2022-07-29T08:10:57.552Z,18.70
2022-07-29T08:12:29.354Z,18.68
2022-07-29T08:14:02.449Z,18.67
2022-07-29T08:15:34.996Z,18.69
2022-07-29T08:17:06.927Z,18.71
2022-07-29T08:18:40.019Z,18.71
2022-07-29T08:20:12.072Z,18.69
2022-07-29T08:21:43.960Z,18.68
2022-07-29T08:23:15.792Z,18.67
2022-07-29T08:24:54.890Z,18.66
2022-07-29T08:26:27.625Z,18.64
2022-07-29T08:28:00.035Z,18.62
2022-07-29T08:29:31.894Z,18.66
2022-07-29T08:31:03.793Z,18.64
2022-07-29T08:34:28.095Z,18.64
2022-07-29T08:36:00.519Z,18.67
2022-07-29T08:37:32.333Z,18.72
2022-07-29T08:39:04.667Z,18.73
2022-07-29T08:40:37.086Z,18.77
2022-07-29T08:42:09.092Z,18.83
2022-07-29T08:43:42.113Z,18.88
2022-07-29T08:45:16.998Z,18.92
2022-07-29T08:46:50.623Z,19.01
2022-07-29T08:48:24.255Z,19.08
2022-07-29T08:49:56.138Z,19.15
2022-07-29T08:51:28.890Z,19.20
2022-07-29T08:53:00.670Z,19.26
2022-07-29T08:54:32.526Z,19.32
2022-07-29T08:56:04.624Z,19.36
2022-07-29T08:57:37.146Z,19.36
2022-07-29T08:59:09.089Z,19.41
2022-07-29T09:00:46.914Z,19.46
2022-07-29T09:02:22.161Z,19.65
2022-07-29T09:03:56.927Z,19.88
2022-07-29T09:05:30.458Z,20.01
2022-07-29T09:07:05.486Z,20.09
2022-07-29T09:08:37.352Z,20.25
2022-07-29T09:10:09.611Z,20.28
2022-07-29T09:11:42.564Z,20.55
2022-07-29T09:13:14.430Z,20.74
2022-07-29T09:14:46.328Z,21.00
2022-07-29T09:16:37.275Z,21.22
2022-07-29T09:18:20.438Z,21.39
2022-07-29T09:20:14.280Z,21.71
2022-07-29T09:22:03.371Z,21.79
2022-07-29T09:23:35.838Z,21.99
2022-07-29T09:25:08.344Z,22.20
2022-07-29T09:26:43.199Z,22.26
2022-07-29T09:28:19.537Z,22.47
2022-07-29T09:30:05.277Z,22.61
2022-07-29T09:31:39.380Z,22.86
2022-07-29T09:33:12.114Z,23.00
2022-07-29T09:34:44.047Z,23.12
2022-07-29T09:36:15.900Z,23.28
2022-07-29T09:37:48.815Z,23.36
2022-07-29T09:39:32.498Z,23.57
2022-07-29T09:41:06.754Z,23.60
2022-07-29T09:42:38.924Z,23.71
2022-07-29T09:44:10.965Z,23.76
2022-07-29T09:45:42.909Z,23.77
2022-07-29T09:47:15.342Z,23.86
2022-07-29T09:49:07.493Z,23.89
2022-07-29T09:50:41.705Z,24.07
2022-07-29T09:52:13.537Z,24.10
2022-07-29T09:53:45.452Z,24.15
2022-07-29T09:55:18.577Z,24.05
2022-07-29T09:56:51.817Z,23.92
2022-07-29T09:58:23.928Z,23.88
2022-07-29T09:59:59.347Z,23.84
2022-07-29T10:01:31.184Z,23.82
2022-07-29T10:03:03.937Z,23.85
2022-07-29T10:04:42.493Z,23.99
2022-07-29T10:06:16.893Z,24.13
2022-07-29T10:07:56.977Z,24.14
2022-07-29T10:09:30.022Z,24.24
2022-07-29T10:11:16.826Z,24.45
2022-07-29T10:12:57.765Z,24.67
2022-07-29T10:14:32.271Z,24.78
2022-07-29T10:16:04.386Z,24.88
2022-07-29T10:17:36.367Z,25.09
2022-07-29T10:19:14.859Z,25.32
2022-07-29T10:20:46.815Z,25.46
2022-07-29T10:22:36.920Z,25.63
2022-07-29T10:24:14.608Z,25.73
2022-07-29T10:25:47.355Z,25.88
2022-07-29T10:27:19.257Z,25.91
2022-07-29T10:28:51.195Z,26.05
2022-07-29T10:30:25.023Z,26.15
2022-07-29T10:32:05.748Z,26.15
2022-07-29T10:34:02.725Z,26.16
2022-07-29T10:35:59.744Z,26.34
2022-07-29T10:38:05.565Z,26.51
2022-07-29T10:39:44.723Z,26.41
2022-07-29T10:41:47.745Z,26.38
2022-07-29T10:43:26.687Z,26.32
2022-07-29T10:45:04.316Z,26.26
2022-07-29T10:46:37.898Z,26.39
2022-07-29T10:48:10.976Z,26.39
2022-07-29T10:50:01.299Z,26.17
2022-07-29T10:51:51.723Z,26.15
2022-07-29T10:54:05.984Z,26.10
2022-07-29T10:55:45.514Z,26.09
2022-07-29T10:57:26.006Z,26.09
2022-07-29T10:59:22.778Z,26.20
2022-07-29T11:00:56.384Z,26.40
2022-07-29T11:02:42.426Z,26.52
2022-07-29T11:04:16.532Z,26.54
2022-07-29T11:05:59.910Z,26.65
2022-07-29T11:07:45.688Z,26.62
2022-07-29T11:09:25.815Z,26.55
2022-07-29T11:11:22.441Z,26.54
2022-07-29T11:13:01.517Z,26.60
2022-07-29T11:14:52.184Z,26.66
2022-07-29T11:16:24.916Z,26.87
2022-07-29T11:18:01.465Z,26.92
2022-07-29T11:19:33.715Z,26.98
2022-07-29T11:21:53.551Z,27.04
2022-07-29T11:23:36.782Z,27.13
2022-07-29T11:25:16.828Z,27.26
2022-07-29T11:27:12.106Z,27.26
2022-07-29T11:28:54.239Z,27.32
2022-07-29T11:30:50.864Z,27.50
2022-07-29T11:32:25.046Z,27.55
2022-07-29T11:34:05.505Z,27.77
2022-07-29T11:35:39.842Z,28.08
2022-07-29T11:37:14.843Z,28.08
2022-07-29T11:38:46.717Z,28.12
2022-07-29T11:40:20.223Z,28.26
2022-07-29T11:41:53.498Z,28.03
2022-07-29T11:43:55.841Z,28.06
2022-07-29T11:45:44.461Z,28.08
2022-07-29T11:47:21.517Z,28.28
2022-07-29T11:48:53.787Z,28.41
2022-07-29T11:50:37.065Z,28.33
2022-07-29T11:52:10.989Z,28.12
2022-07-29T11:53:48.354Z,27.99
2022-07-29T11:55:32.258Z,27.94
2022-07-29T11:57:08.019Z,27.75
2022-07-29T11:58:40.747Z,27.88
2022-07-29T12:00:14.498Z,27.93
2022-07-29T12:02:02.428Z,27.93
2022-07-29T12:03:46.118Z,28.13
2022-07-29T12:07:11.354Z,28.27
2022-07-29T12:08:48.136Z,28.49
2022-07-29T12:10:30.635Z,28.62
2022-07-29T12:12:05.427Z,28.79
2022-07-29T12:13:40.080Z,28.92
2022-07-29T12:15:14.015Z,29.03
2022-07-29T12:16:47.183Z,29.07
2022-07-29T12:18:24.026Z,29.08
2022-07-29T12:20:03.848Z,29.02
2022-07-29T12:21:53.995Z,28.82
2022-07-29T12:23:29.353Z,28.80
2022-07-29T12:25:32.398Z,28.70
2022-07-29T12:27:05.755Z,28.66
2022-07-29T12:28:40.748Z,28.62
2022-07-29T12:30:17.486Z,28.65
2022-07-29T12:31:55.050Z,28.80
2022-07-29T12:33:30.651Z,28.90
2022-07-29T12:35:10.339Z,28.94
2022-07-29T12:36:43.204Z,29.07
2022-07-29T12:38:15.376Z,29.20
2022-07-29T12:39:47.385Z,29.28
2022-07-29T12:41:19.307Z,29.22
2022-07-29T12:43:13.151Z,29.20
2022-07-29T12:44:53.941Z,29.34
2022-07-29T12:46:25.890Z,29.37
2022-07-29T12:47:58.672Z,29.50
2022-07-29T12:49:30.898Z,29.55
2022-07-29T12:51:12.819Z,29.65
2022-07-29T12:52:45.660Z,29.77
2022-07-29T12:54:17.520Z,29.92
2022-07-29T12:55:52.652Z,29.89
2022-07-29T12:57:25.095Z,29.89
2022-07-29T12:58:56.884Z,29.78
2022-07-29T13:00:28.812Z,29.87
2022-07-29T13:02:01.220Z,29.92
2022-07-29T13:03:57.477Z,29.89
2022-07-29T13:05:49.375Z,29.81
2022-07-29T13:07:55.254Z,29.90
2022-07-29T13:09:23.584Z,29.95
2022-07-29T13:10:55.745Z,29.99
2022-07-29T13:12:27.627Z,29.83
2022-07-29T13:14:07.041Z,29.74
2022-07-29T13:15:41.294Z,29.87
2022-07-29T13:17:14.677Z,29.83
2022-07-29T13:18:46.494Z,29.80
2022-07-29T13:20:18.366Z,29.86
2022-07-29T13:21:50.272Z,29.89
2022-07-29T13:23:22.322Z,30.02
2022-07-29T13:25:04.571Z,30.02
2022-07-29T13:26:38.124Z,30.03
2022-07-29T13:28:12.827Z,30.08
2022-07-29T13:29:45.050Z,30.08
2022-07-29T13:31:17.545Z,29.94
2022-07-29T13:32:50.129Z,29.97
2022-07-29T13:34:24.830Z,30.00
2022-07-29T13:35:56.691Z,30.15
2022-07-29T13:37:30.914Z,30.30
2022-07-29T13:39:03.750Z,30.40
2022-07-29T13:40:36.496Z,30.49
2022-07-29T13:42:11.088Z,30.57
2022-07-29T13:43:43.101Z,30.50
2022-07-29T13:45:15.244Z,30.54
2022-07-29T13:46:47.135Z,30.43
2022-07-29T13:48:19.105Z,30.48
2022-07-29T13:49:56.792Z,30.53
2022-07-29T13:51:28.683Z,30.44
2022-07-29T13:53:00.537Z,30.62
2022-07-29T13:54:32.448Z,30.62
2022-07-29T13:56:06.917Z,30.59
2022-07-29T13:57:38.780Z,30.60
2022-07-29T13:59:10.761Z,30.56
2022-07-29T14:00:43.923Z,30.64
2022-07-29T14:02:15.801Z,30.30
2022-07-29T14:03:47.748Z,30.23
2022-07-29T14:05:19.612Z,30.22
2022-07-29T14:06:51.733Z,30.22
2022-07-29T14:08:23.753Z,30.07
2022-07-29T14:09:55.779Z,29.90
2022-07-29T14:11:30.197Z,29.96
2022-07-29T14:13:02.277Z,29.95
2022-07-29T14:14:38.155Z,29.98
2022-07-29T14:16:10.309Z,29.98
2022-07-29T14:17:42.305Z,30.09
2022-07-29T14:19:14.414Z,30.20
2022-07-29T14:20:48.153Z,30.39
2022-07-29T14:22:20.237Z,30.52
2022-07-29T14:23:55.711Z,30.58
2022-07-29T14:25:28.241Z,30.67
2022-07-29T14:27:00.501Z,30.72
2022-07-29T14:28:33.340Z,30.80
2022-07-29T14:30:06.034Z,30.84
2022-07-29T14:31:40.747Z,30.84
2022-07-29T14:33:12.670Z,30.84
2022-07-29T14:34:44.524Z,30.80
2022-07-29T14:36:16.459Z,30.70
2022-07-29T14:37:48.389Z,30.72
2022-07-29T14:39:20.263Z,30.68
2022-07-29T14:40:56.255Z,30.68
2022-07-29T14:42:28.164Z,30.63
2022-07-29T14:44:01.763Z,30.79
2022-07-29T14:45:33.923Z,30.82
2022-07-29T14:47:07.796Z,30.84
2022-07-29T14:48:40.419Z,30.96
2022-07-29T14:50:12.411Z,30.86
2022-07-29T14:51:44.279Z,30.83
2022-07-29T14:53:16.405Z,30.90
2022-07-29T14:54:48.739Z,30.89
2022-07-29T14:56:36.604Z,30.73
2022-07-29T14:58:18.181Z,30.77
2022-07-29T14:59:50.126Z,30.77
2022-07-29T15:01:22.001Z,30.67
2022-07-29T15:03:02.609Z,30.80
2022-07-29T15:04:35.420Z,30.91
2022-07-29T15:06:08.095Z,30.99
2022-07-29T15:07:40.071Z,31.01
2022-07-29T15:09:12.032Z,31.03
2022-07-29T15:10:43.821Z,31.06
2022-07-29T15:12:15.690Z,30.96
2022-07-29T15:13:47.642Z,30.95
2022-07-29T15:15:19.495Z,30.96
2022-07-29T15:16:54.098Z,31.03
2022-07-29T15:18:26.112Z,31.09
2022-07-29T15:19:57.942Z,31.06
2022-07-29T15:21:29.796Z,31.02
2022-07-29T15:23:01.736Z,31.12
2022-07-29T15:24:33.961Z,31.19
2022-07-29T15:26:05.959Z,31.28
2022-07-29T15:27:37.908Z,31.30
2022-07-29T15:29:10.095Z,31.33
2022-07-29T15:30:42.007Z,31.38
2022-07-29T15:32:13.891Z,31.46
2022-07-29T15:33:46.003Z,31.50
2022-07-29T15:35:17.913Z,31.59
2022-07-29T15:36:53.345Z,31.66
2022-07-29T15:38:28.783Z,31.58
2022-07-29T15:40:01.021Z,31.44
2022-07-29T15:41:34.084Z,31.42
2022-07-29T15:43:06.944Z,31.47
2022-07-29T15:44:38.838Z,31.43
2022-07-29T15:46:33.391Z,31.55
2022-07-29T15:48:07.161Z,31.65
2022-07-29T15:49:48.056Z,31.77
2022-07-29T15:51:21.361Z,31.74
2022-07-29T15:52:54.331Z,31.69
2022-07-29T15:54:26.653Z,31.72
2022-07-29T15:55:58.433Z,31.73
2022-07-29T15:57:30.265Z,31.73
2022-07-29T15:59:02.142Z,31.74
2022-07-29T16:00:34.144Z,31.75
2022-07-29T16:02:06.299Z,31.83
2022-07-29T16:03:40.968Z,31.82
2022-07-29T16:05:14.988Z,31.89
2022-07-29T16:06:47.721Z,31.97
2022-07-29T16:08:19.676Z,31.95
2022-07-29T16:09:53.393Z,31.93
2022-07-29T16:11:25.386Z,32.01
2022-07-29T16:12:57.242Z,31.74
2022-07-29T16:14:29.174Z,31.65
2022-07-29T16:16:04.195Z,31.54
2022-07-29T16:17:36.354Z,31.49
2022-07-29T16:19:10.592Z,31.53
2022-07-29T16:20:42.829Z,31.42
2022-07-29T16:22:14.810Z,31.33
2022-07-29T16:23:46.670Z,31.09
2022-07-29T16:25:43.957Z,30.99
2022-07-29T16:27:17.267Z,30.76
2022-07-29T16:28:49.103Z,30.70
2022-07-29T16:30:23.599Z,30.63
2022-07-29T16:31:55.602Z,30.57
2022-07-29T16:33:28.472Z,30.57
2022-07-29T16:35:22.027Z,30.61
2022-07-29T16:36:53.844Z,30.48
2022-07-29T16:38:25.894Z,30.44
2022-07-29T16:39:57.742Z,30.20
2022-07-29T16:41:29.831Z,30.12
2022-07-29T16:43:01.709Z,30.09
2022-07-29T16:44:34.829Z,30.18
2022-07-29T16:46:11.231Z,30.12
2022-07-29T16:47:51.782Z,30.12
2022-07-29T16:49:27.437Z,30.15
2022-07-29T16:51:01.719Z,30.08
2022-07-29T16:52:33.890Z,29.97
2022-07-29T16:54:05.976Z,29.99
2022-07-29T16:55:38.191Z,30.01
2022-07-29T16:57:10.096Z,30.06
2022-07-29T16:58:43.949Z,30.00
2022-07-29T17:00:17.788Z,29.97
2022-07-29T17:01:49.739Z,29.92
2022-07-29T17:03:21.637Z,29.93
2022-07-29T17:04:53.569Z,29.77
2022-07-29T17:06:25.512Z,29.78
2022-07-29T17:07:58.584Z,29.68
2022-07-29T17:09:31.147Z,29.68
2022-07-29T17:11:02.967Z,29.66
2022-07-29T17:12:39.889Z,29.70
2022-07-29T17:14:11.889Z,29.65
2022-07-29T17:15:44.271Z,29.57
2022-07-29T17:17:20.957Z,29.50
2022-07-29T17:19:08.997Z,29.45
2022-07-29T17:20:42.086Z,29.33
2022-07-29T17:22:19.079Z,29.32
2022-07-29T17:23:52.565Z,29.33
2022-07-29T17:25:24.431Z,29.24
2022-07-29T17:26:56.724Z,29.23
2022-07-29T17:28:28.727Z,29.30
2022-07-29T17:30:00.644Z,29.38
2022-07-29T17:31:32.551Z,29.22
2022-07-29T17:33:04.544Z,29.16
2022-07-29T17:34:40.784Z,29.21
2022-07-29T17:36:27.691Z,29.16
2022-07-29T17:37:59.677Z,29.16
2022-07-29T17:39:31.591Z,29.17
2022-07-29T17:41:07.794Z,29.23
2022-07-29T17:42:41.600Z,29.16
2022-07-29T17:44:13.919Z,29.14
2022-07-29T17:45:49.644Z,28.99
2022-07-29T17:47:22.550Z,28.95
2022-07-29T17:48:56.022Z,28.96
2022-07-29T17:50:27.959Z,28.83
2022-07-29T17:52:01.142Z,28.76
2022-07-29T17:53:33.148Z,28.58
2022-07-29T17:55:05.928Z,28.56
2022-07-29T17:56:37.884Z,28.48
2022-07-29T17:58:09.734Z,28.46
2022-07-29T17:59:41.588Z,28.42
2022-07-29T18:01:14.588Z,28.37
2022-07-29T18:02:47.549Z,28.33
2022-07-29T18:04:21.238Z,28.25
2022-07-29T18:05:53.735Z,28.23
2022-07-29T18:07:25.465Z,28.18
2022-07-29T18:08:57.421Z,28.14
2022-07-29T18:10:29.442Z,28.08
2022-07-29T18:12:01.332Z,28.10
2022-07-29T18:13:33.296Z,28.09
2022-07-29T18:15:05.732Z,28.07
2022-07-29T18:16:38.631Z,27.97
2022-07-29T18:18:11.083Z,27.84
2022-07-29T18:19:42.912Z,27.81
2022-07-29T18:21:17.614Z,27.71
2022-07-29T18:23:09.584Z,27.68
2022-07-29T18:24:42.080Z,27.64
2022-07-29T18:26:13.849Z,27.59
2022-07-29T18:27:45.799Z,27.50
2022-07-29T18:29:17.653Z,27.45
2022-07-29T18:30:49.740Z,27.36
2022-07-29T18:32:29.306Z,27.32
2022-07-29T18:34:01.641Z,27.23
2022-07-29T18:35:33.441Z,27.17
2022-07-29T18:37:05.360Z,27.10
2022-07-29T18:38:37.188Z,26.98
2022-07-29T18:40:10.865Z,27.02
2022-07-29T18:41:50.770Z,27.04
2022-07-29T18:43:23.056Z,27.02
2022-07-29T18:44:58.143Z,26.93
2022-07-29T18:46:30.100Z,26.94
2022-07-29T18:48:02.408Z,26.96
2022-07-29T18:49:36.511Z,26.96
2022-07-29T18:51:09.641Z,26.90
2022-07-29T18:52:42.567Z,26.91
2022-07-29T18:54:14.503Z,26.87
2022-07-29T18:55:46.423Z,26.82
2022-07-29T18:57:55.199Z,26.76
2022-07-29T18:59:10.638Z,26.76
2022-07-29T19:00:42.508Z,26.73
2022-07-29T19:02:16.698Z,26.70
2022-07-29T19:03:48.808Z,26.68
2022-07-29T19:05:23.828Z,26.63
2022-07-29T19:06:56.590Z,26.59
2022-07-29T19:08:28.664Z,26.58
2022-07-29T19:10:00.775Z,26.55
2022-07-29T19:11:32.633Z,26.55
2022-07-29T19:13:04.651Z,26.53
2022-07-29T19:14:36.519Z,26.53
2022-07-29T19:16:12.063Z,26.50
2022-07-29T19:17:43.892Z,26.50
2022-07-29T19:19:15.751Z,26.48
2022-07-29T19:20:47.673Z,26.40
2022-07-29T19:22:23.010Z,26.37
2022-07-29T19:24:01.825Z,26.31
2022-07-29T19:25:53.885Z,26.24
2022-07-29T19:27:26.179Z,26.16
2022-07-29T19:28:58.039Z,26.12
2022-07-29T19:30:30.022Z,26.09
2022-07-29T19:32:01.938Z,26.04
2022-07-29T19:33:34.295Z,25.96
2022-07-29T19:35:45.010Z,25.92
2022-07-29T19:37:16.896Z,25.86
2022-07-29T19:38:48.781Z,25.83
2022-07-29T19:40:21.414Z,25.82
2022-07-29T19:41:57.207Z,25.78
2022-07-29T19:43:50.633Z,25.70
2022-07-29T19:45:24.964Z,25.67
2022-07-29T19:46:57.100Z,25.64
2022-07-29T19:48:29.333Z,25.61
2022-07-29T19:50:01.435Z,25.57
2022-07-29T19:51:34.008Z,25.52
2022-07-29T19:53:05.838Z,25.48
2022-07-29T19:54:37.766Z,25.39
2022-07-29T19:56:09.575Z,25.35
2022-07-29T19:57:42.036Z,25.32
2022-07-29T19:59:13.937Z,25.29
2022-07-29T20:00:45.857Z,25.27
2022-07-29T20:02:17.908Z,25.25
2022-07-29T20:03:49.844Z,25.21
2022-07-29T20:05:21.664Z,25.13
2022-07-29T20:07:01.793Z,25.11
2022-07-29T20:08:36.530Z,25.07
2022-07-29T20:10:09.333Z,25.00
2022-07-29T20:11:41.163Z,24.93
2022-07-29T20:13:15.950Z,24.85
2022-07-29T20:14:48.397Z,24.83
2022-07-29T20:16:20.636Z,24.80
2022-07-29T20:17:56.756Z,24.74
2022-07-29T20:19:29.084Z,24.67
2022-07-29T20:21:01.588Z,24.69
2022-07-29T20:22:37.184Z,24.64
2022-07-29T20:24:10.465Z,24.62
2022-07-29T20:25:42.773Z,24.56
2022-07-29T20:27:14.753Z,24.52
2022-07-29T20:28:49.401Z,24.48
2022-07-29T20:30:22.402Z,24.38